Time;durP1;ratioP1;P1;durP2;ratioP2;P2;SDS_P1;SDS_P2;PMS_P1;PMS_P2;Temp;Humidity;BMP_temperature;BMP_pressure;BME280_temperature;BME280_humidity;BME280_pressure;Samples;Min_cycle;Max_cycle;Signal;HPM_P1;HPM_P2
2023/01/07 00:00:46;;;;;;;12.02;10.85;;;;;;;10.71;100.00;163365.09;5068690;28;20400;-60
2023/01/07 00:03:11;;;;;;;14.77;12.48;;;;;;;10.70;100.00;163362.38;5056845;28;20056;-60
2023/01/07 00:05:37;;;;;;;15.40;12.85;;;;;;;10.72;100.00;163367.78;5054454;28;20037;-60
2023/01/07 00:08:02;;;;;;;12.18;10.93;;;;;;;10.75;100.00;163375.91;5049917;28;20032;-60
2023/01/07 00:10:28;;;;;;;14.55;12.05;;;;;;;10.81;100.00;163389.41;5048903;28;20028;-60
2023/01/07 00:12:53;;;;;;;11.00;9.73;;;;;;;10.81;100.00;163389.41;5050791;28;20027;-60
2023/01/07 00:15:18;;;;;;;12.35;11.05;;;;;;;10.84;100.00;163398.84;5052056;28;20028;-59
2023/01/07 00:17:44;;;;;;;11.55;10.43;;;;;;;10.84;100.00;163397.47;5050567;28;20021;-61
2023/01/07 00:20:09;;;;;;;13.45;12.13;;;;;;;10.86;100.00;163404.25;5050236;28;20040;-63
2023/01/07 00:22:34;;;;;;;14.75;11.40;;;;;;;10.90;100.00;163413.72;5048664;28;20044;-63
2023/01/07 00:25:00;;;;;;;11.18;10.15;;;;;;;10.90;100.00;163415.03;5050779;28;20025;-66
2023/01/07 00:27:25;;;;;;;12.90;9.90;;;;;;;10.92;100.00;163419.06;5048805;28;20656;-65
2023/01/07 00:29:50;;;;;;;12.63;11.40;;;;;;;10.90;100.00;163415.03;5050132;28;20384;-64
2023/01/07 00:32:16;;;;;;;11.35;10.20;;;;;;;10.91;100.00;163417.75;5048819;28;20036;-65
2023/01/07 00:34:41;;;;;;;10.65;9.60;;;;;;;10.90;100.00;163413.72;5050237;28;20039;-65
2023/01/07 00:39:50;;;;;;;11.52;10.02;;;;;;;10.88;100.00;163409.63;5050456;28;20051;-65
2023/01/07 00:44:59;;;;;;;11.75;10.57;;;;;;;10.92;100.00;163419.06;5049874;28;20537;-65
2023/01/07 00:47:26;;;;;;;11.48;10.38;;;;;;;10.89;100.00;163411.00;5048574;28;20045;-65
2023/01/07 00:49:51;;;;;;;11.57;10.48;;;;;;;10.87;100.00;163405.59;5050286;28;20383;-65
2023/01/07 00:52:16;;;;;;;14.25;10.18;;;;;;;10.86;100.00;163402.88;5048273;28;20041;-65
2023/01/07 00:54:42;;;;;;;13.63;12.20;;;;;;;10.83;100.00;163394.81;5050207;28;20348;-65
2023/01/07 00:57:11;;;;;;;15.13;11.20;;;;;;;10.79;100.00;163386.69;5048445;28;20124;-65
2023/01/07 00:59:36;;;;;;;14.13;10.30;;;;;;;10.81;100.00;163390.72;5049941;28;20024;-65
2023/01/07 01:02:02;;;;;;;14.05;11.57;;;;;;;10.78;100.00;163384.00;5048627;28;20067;-65
2023/01/07 01:04:27;;;;;;;13.43;12.00;;;;;;;10.72;100.00;163367.78;5048910;28;20140;-65
2023/01/07 01:06:52;;;;;;;13.80;12.27;;;;;;;10.66;100.00;163350.22;5051955;28;20043;-65
2023/01/07 01:09:19;;;;;;;15.65;14.15;;;;;;;10.57;100.00;163327.28;5054011;28;20380;-65
2023/01/07 01:11:44;;;;;;;15.10;11.43;;;;;;;10.54;100.00;163319.19;5052460;28;20412;-64
2023/01/07 01:14:10;;;;;;;18.13;15.63;;;;;;;10.48;100.00;163305.69;5053295;28;20025;-65
2023/01/07 01:16:36;;;;;;;15.63;13.13;;;;;;;10.44;100.00;163293.53;5063174;28;20636;-65
2023/01/07 01:19:01;;;;;;;18.05;13.20;;;;;;;10.42;100.00;163289.50;5073656;28;20020;-64
2023/01/07 01:21:26;;;;;;;18.77;13.52;;;;;;;10.36;100.00;163273.25;5071423;28;20025;-65
2023/01/07 01:23:52;;;;;;;14.77;13.27;;;;;;;10.35;100.00;163270.56;5073597;28;20023;-65
2023/01/07 01:26:17;;;;;;;16.35;13.57;;;;;;;10.31;100.00;163259.78;5071719;28;20101;-64
2023/01/07 01:28:44;;;;;;;14.88;13.40;;;;;;;10.32;100.00;163262.44;5073445;28;20025;-65
2023/01/07 01:31:09;;;;;;;15.35;12.13;;;;;;;10.28;100.00;163251.66;5071438;28;20097;-63
2023/01/07 01:33:35;;;;;;;13.25;11.88;;;;;;;10.28;100.00;163251.66;5073663;28;20020;-63
2023/01/07 01:36:09;;;;;;;16.15;12.93;;;;;;;10.27;100.00;163250.34;5071552;28;20549;-63
2023/01/07 01:38:35;;;;;;;13.13;11.70;;;;;;;10.27;100.00;163250.34;5073418;28;20035;-64
2023/01/07 01:41:00;;;;;;;12.18;11.07;;;;;;;10.21;100.00;163232.78;5071921;28;20032;-63
2023/01/07 01:43:38;;;;;;;14.77;12.30;;;;;;;10.27;100.00;163248.97;5072718;28;20024;-63
2023/01/07 01:46:38;;;;;;;13.50;11.02;;;;;;;10.29;100.00;163254.38;5071443;28;20037;-63
2023/01/07 01:49:09;;;;;;;14.88;11.52;;;;;;;10.31;100.00;163259.78;5072985;28;20574;-62
2023/01/07 01:51:40;;;;;;;21.92;12.00;;;;;;;10.29;100.00;163255.72;5071450;28;20041;-62
2023/01/07 01:54:10;;;;;;;11.57;10.05;;;;;;;10.31;100.00;163259.78;5072974;28;20032;-61
2023/01/07 01:56:39;;;;;;;12.98;10.82;;;;;;;10.36;100.00;163273.25;5071306;28;20087;-60
2023/01/07 01:59:09;;;;;;;11.57;10.57;;;;;;;10.35;100.00;163270.56;5072427;28;20099;-61
2023/01/07 02:01:35;;;;;;;12.98;9.93;;;;;;;10.32;100.00;163263.81;5071313;28;20521;-61
2023/01/07 02:04:06;;;;;;;19.25;11.32;;;;;;;10.38;100.00;163278.72;5072696;28;20506;-61
2023/01/07 02:06:35;;;;;;;13.07;10.55;;;;;;;10.35;100.00;163270.56;5071204;28;20399;-61
2023/01/07 02:09:01;;;;;;;12.15;9.65;;;;;;;10.39;100.00;163281.38;5072956;28;20055;-61
2023/01/07 02:11:50;;;;;;;12.35;10.40;;;;;;;10.40;100.00;163284.09;5071038;28;20037;-61
2023/01/07 02:14:47;;;;;;;10.07;9.07;;;;;;;10.41;100.00;163286.81;5072386;28;20085;-61
2023/01/07 02:17:39;;;;;;;10.93;9.88;;;;;;;10.44;100.00;163294.91;5050540;28;20381;-61
2023/01/07 02:20:24;;;;;;;9.20;8.25;;;;;;;10.41;100.00;163285.47;5051924;28;20059;-61
2023/01/07 02:23:05;;;;;;;10.18;8.82;;;;;;;10.40;100.00;163282.78;5050996;28;20037;-61
2023/01/07 02:25:52;;;;;;;10.98;8.85;;;;;;;10.38;100.00;163278.72;5050853;28;20464;-61
2023/01/07 02:28:54;;;;;;;8.75;7.85;;;;;;;10.32;100.00;163262.44;5051921;28;20078;-61
2023/01/07 02:31:53;;;;;;;8.93;8.10;;;;;;;10.30;100.00;163257.09;5050649;28;20044;-61
2023/01/07 02:34:53;;;;;;;8.57;7.75;;;;;;;10.13;100.00;163213.88;5051864;28;20036;-61
2023/01/07 02:37:46;;;;;;;10.65;8.73;;;;;;;10.24;100.00;163242.22;5051566;28;20554;-61
2023/01/07 02:40:25;;;;;;;11.57;8.75;;;;;;;10.20;100.00;163230.06;5051441;28;20025;-60
2023/01/07 02:43:10;;;;;;;10.93;8.63;;;;;;;10.24;100.00;163240.91;5051847;28;20120;-61
2023/01/07 02:45:48;;;;;;;8.25;7.47;;;;;;;10.27;100.00;163248.97;5050521;28;20037;-61
2023/01/07 02:48:17;;;;;;;12.82;9.32;;;;;;;10.29;100.00;163255.72;5051976;28;20036;-61
2023/01/07 02:50:42;;;;;;;10.13;7.72;;;;;;;10.32;100.00;163262.44;5050168;28;20538;-61
2023/01/07 02:53:11;;;;;;;8.65;7.93;;;;;;;10.34;100.00;163267.84;5051583;28;20030;-61
2023/01/07 02:56:00;;;;;;;9.70;7.88;;;;;;;10.36;100.00;163271.91;5050215;28;20045;-61
2023/01/07 02:58:40;;;;;;;9.15;8.30;;;;;;;10.35;100.00;163269.25;5051277;28;20024;-62
2023/01/07 03:01:20;;;;;;;12.20;7.03;;;;;;;10.31;100.00;163259.78;5049971;28;20052;-61
2023/01/07 03:04:09;;;;;;;20.42;8.00;;;;;;;10.31;100.00;163259.78;5051281;28;20045;-61
2023/01/07 03:07:03;;;;;;;10.05;8.32;;;;;;;10.26;100.00;163246.25;5050097;28;20563;-62
2023/01/07 03:09:53;;;;;;;7.32;6.63;;;;;;;10.25;100.00;163243.56;5051449;28;20444;-62
2023/01/07 03:12:21;;;;;;;9.20;8.13;;;;;;;10.20;100.00;163231.41;5049642;28;20061;-62
2023/01/07 03:14:56;;;;;;;11.40;7.57;;;;;;;10.15;100.00;163219.28;5051438;28;20033;-62
2023/01/07 03:17:26;;;;;;;11.50;8.02;;;;;;;10.07;100.00;163197.69;5049758;28;20521;-62
2023/01/07 03:19:56;;;;;;;7.72;6.95;;;;;;;10.04;100.00;163189.59;5051038;28;20127;-62
2023/01/07 03:22:25;;;;;;;14.70;8.88;;;;;;;9.91;100.00;163154.50;5049596;28;20123;-62
2023/01/07 03:24:53;;;;;;;11.30;8.18;;;;;;;9.94;100.00;163162.63;5051348;28;20043;-62
2023/01/07 03:27:21;;;;;;;9.93;7.35;;;;;;;9.95;100.00;163166.66;5048636;28;20048;-62
2023/01/07 03:29:48;;;;;;;12.68;7.70;;;;;;;9.95;100.00;163165.28;5051470;28;20029;-62
2023/01/07 03:32:21;;;;;;;8.55;7.65;;;;;;;9.95;100.00;163165.28;5048072;28;20415;-62
2023/01/07 03:34:46;;;;;;;12.68;8.32;;;;;;;9.95;100.00;163165.28;5050684;28;20476;-62
2023/01/07 03:37:15;;;;;;;7.72;7.03;;;;;;;10.00;100.00;163180.16;5049417;28;20067;-62
2023/01/07 03:39:43;;;;;;;9.65;7.90;;;;;;;10.03;100.00;163186.88;5051463;28;20016;-62
2023/01/07 03:44:54;;;;;;;7.68;6.88;;;;;;;10.02;100.00;163182.84;5031517;28;20557;-62
2023/01/07 03:47:20;;;;;;;11.48;7.38;;;;;;;9.99;100.00;163176.09;5029760;28;20048;-61
2023/01/07 03:49:45;;;;;;;8.18;7.38;;;;;;;9.84;100.00;163136.97;5030845;28;20408;-62
2023/01/07 03:52:11;;;;;;;12.50;8.10;;;;;;;9.85;100.00;163139.66;5029481;28;20037;-61
2023/01/07 03:54:36;;;;;;;7.72;7.03;;;;;;;9.78;100.00;163122.16;5033085;28;20025;-62
2023/01/07 03:57:02;;;;;;;17.42;8.60;;;;;;;9.70;100.00;163100.56;5068994;28;20037;-62
2023/01/07 03:59:27;;;;;;;9.00;7.70;;;;;;;9.65;100.00;163087.03;5070585;28;20036;-61
2023/01/07 04:01:52;;;;;;;9.25;8.30;;;;;;;9.58;100.00;163069.53;5069414;28;20032;-62
2023/01/07 04:04:18;;;;;;;10.27;8.38;;;;;;;9.56;100.00;163062.78;5069839;28;20090;-62
2023/01/07 04:06:43;;;;;;;9.48;8.60;;;;;;;9.60;100.00;163073.56;5069365;28;20465;-62
2023/01/07 04:09:10;;;;;;;11.98;8.40;;;;;;;9.64;100.00;163084.38;5070547;28;20017;-63
2023/01/07 04:11:36;;;;;;;10.30;7.90;;;;;;;9.67;100.00;163092.44;5068552;28;20173;-62
2023/01/07 04:14:01;;;;;;;8.65;7.85;;;;;;;9.65;100.00;163087.03;5070779;28;20021;-63
2023/01/07 04:16:26;;;;;;;14.50;8.57;;;;;;;9.70;100.00;163100.56;5069168;28;20071;-62
2023/01/07 04:18:52;;;;;;;9.43;7.90;;;;;;;9.72;100.00;163105.91;5055910;28;20104;-62
2023/01/07 04:21:17;;;;;;;11.65;8.57;;;;;;;9.78;100.00;163120.78;5048942;28;20037;-63
2023/01/07 04:23:42;;;;;;;7.95;7.15;;;;;;;9.83;100.00;163135.63;5050453;28;20021;-62
2023/01/07 04:26:08;;;;;;;10.40;8.52;;;;;;;9.86;100.00;163141.03;5048476;28;20041;-62
2023/01/07 04:28:33;;;;;;;8.80;8.07;;;;;;;9.90;100.00;163153.19;5050635;28;20037;-62
2023/01/07 04:30:58;;;;;;;8.80;7.03;;;;;;;9.96;100.00;163168.00;5049059;28;20041;-62
2023/01/07 04:33:24;;;;;;;8.18;6.43;;;;;;;9.95;100.00;163166.66;5049782;28;20029;-63
2023/01/07 04:35:49;;;;;;;6.85;6.32;;;;;;;9.97;100.00;163170.69;5048918;28;20035;-64
2023/01/07 04:38:14;;;;;;;10.05;7.97;;;;;;;10.02;100.00;163182.84;5050410;28;20048;-64
2023/01/07 04:40:40;;;;;;;7.10;6.50;;;;;;;10.07;100.00;163197.69;5052494;28;20028;-64
2023/01/07 04:43:05;;;;;;;14.65;7.97;;;;;;;10.07;100.00;163196.31;5054118;28;20388;-64
2023/01/07 04:45:30;;;;;;;9.18;7.30;;;;;;;10.05;100.00;163192.28;5053003;28;20025;-64
2023/01/07 04:47:56;;;;;;;6.85;5.68;;;;;;;10.07;100.00;163197.69;5054018;28;20457;-63
2023/01/07 04:50:23;;;;;;;7.10;6.43;;;;;;;10.09;100.00;163203.06;5054526;28;20144;-64
2023/01/07 04:52:48;;;;;;;9.60;6.22;;;;;;;10.05;100.00;163192.28;5052723;28;20037;-64
2023/01/07 04:55:14;;;;;;;6.75;6.05;;;;;;;10.05;100.00;163192.28;5053531;28;20029;-63
2023/01/07 04:57:39;;;;;;;7.05;6.05;;;;;;;10.06;100.00;163195.00;5052647;28;20033;-65
2023/01/07 05:00:06;;;;;;;6.30;5.70;;;;;;;10.06;100.00;163195.00;5053826;28;20020;-65
2023/01/07 05:02:31;;;;;;;7.55;6.25;;;;;;;10.07;100.00;163196.31;5051920;28;20045;-65
2023/01/07 05:04:57;;;;;;;6.45;5.85;;;;;;;10.09;100.00;163201.75;5053998;28;20024;-65
2023/01/07 05:07:22;;;;;;;6.65;6.00;;;;;;;10.07;100.00;163197.69;5052327;28;20407;-65
2023/01/07 05:09:47;;;;;;;8.30;5.93;;;;;;;10.04;100.00;163189.59;5053587;28;20033;-65
2023/01/07 05:12:12;;;;;;;5.88;5.47;;;;;;;10.02;100.00;163184.19;5052140;28;20040;-65
2023/01/07 05:14:38;;;;;;;6.60;5.32;;;;;;;9.95;100.00;163166.66;5053675;28;20079;-65
2023/01/07 05:17:03;;;;;;;8.45;5.85;;;;;;;9.90;100.00;163151.81;5051968;28;20041;-62
2023/01/07 05:19:28;;;;;;;12.32;5.88;;;;;;;9.84;100.00;163136.97;5053803;28;20032;-62
2023/01/07 05:21:54;;;;;;;6.80;5.85;;;;;;;9.75;100.00;163114.03;5052164;28;20036;-62
2023/01/07 05:24:19;;;;;;;11.65;6.43;;;;;;;9.62;100.00;163078.97;5053062;28;20032;-60
2023/01/07 05:26:44;;;;;;;6.43;5.85;;;;;;;9.61;100.00;163076.28;5052068;28;20033;-60
2023/01/07 05:29:10;;;;;;;6.03;5.53;;;;;;;9.57;100.00;163065.50;5053387;28;20037;-60
2023/01/07 05:31:35;;;;;;;9.60;5.57;;;;;;;9.45;100.00;163034.47;5052213;28;20041;-60
2023/01/07 05:34:00;;;;;;;6.57;5.90;;;;;;;9.52;100.00;163053.34;5053256;28;20021;-60
2023/01/07 05:36:26;;;;;;;7.80;5.10;;;;;;;9.43;100.00;163030.38;5051454;28;20041;-60
2023/01/07 05:38:51;;;;;;;5.60;5.15;;;;;;;9.40;100.00;163022.31;5053397;28;20025;-60
2023/01/07 05:41:17;;;;;;;6.07;5.47;;;;;;;9.37;100.00;163014.22;5051237;28;20045;-64
2023/01/07 05:43:42;;;;;;;5.32;4.80;;;;;;;9.34;100.00;163007.47;5052789;28;20086;-63
2023/01/07 05:46:07;;;;;;;7.25;6.65;;;;;;;9.28;100.00;162989.91;5051500;28;20037;-63
2023/01/07 05:48:33;;;;;;;6.05;4.82;;;;;;;9.28;100.00;162989.91;5052946;28;20020;-64
2023/01/07 05:50:58;;;;;;;7.95;5.63;;;;;;;9.27;100.00;162987.28;5050702;28;20468;-63
2023/01/07 05:53:24;;;;;;;5.55;4.90;;;;;;;9.25;100.00;162983.19;5056238;28;20036;-63
2023/01/07 05:55:55;;;;;;;8.18;5.85;;;;;;;9.24;100.00;162979.16;5051486;28;20033;-63
2023/01/07 05:58:20;;;;;;;6.40;5.40;;;;;;;9.18;100.00;162965.69;5052847;28;20025;-63
2023/01/07 06:00:45;;;;;;;6.60;6.00;;;;;;;9.18;100.00;162964.31;5051406;28;20086;-63
2023/01/07 06:03:11;;;;;;;8.52;6.10;;;;;;;9.17;100.00;162962.97;5052059;28;20047;-63
2023/01/07 06:05:36;;;;;;;6.15;5.60;;;;;;;9.19;100.00;162968.38;5051876;28;20036;-64
2023/01/07 06:08:02;;;;;;;8.95;6.15;;;;;;;9.10;100.00;162944.09;5052957;28;20502;-61
2023/01/07 06:10:27;;;;;;;5.82;5.40;;;;;;;9.16;100.00;162960.28;5051041;28;20420;-60
2023/01/07 06:12:52;;;;;;;6.28;5.78;;;;;;;9.09;100.00;162940.03;5052773;28;20095;-61
2023/01/07 06:15:17;;;;;;;7.25;6.65;;;;;;;9.11;100.00;162946.81;5067163;28;20070;-61
2023/01/07 06:17:43;;;;;;;7.05;5.78;;;;;;;9.11;100.00;162946.81;5067861;28;20052;-61
2023/01/07 06:20:09;;;;;;;5.93;5.43;;;;;;;9.07;100.00;162934.66;5072122;28;20032;-61
2023/01/07 06:22:35;;;;;;;6.80;5.30;;;;;;;9.04;100.00;162927.94;5059021;28;20052;-63
2023/01/07 06:25:01;;;;;;;9.75;5.38;;;;;;;9.06;100.00;162933.28;5036421;28;20025;-63
2023/01/07 06:27:26;;;;;;;5.75;5.18;;;;;;;9.01;100.00;162921.16;5050661;28;20048;-64
2023/01/07 06:29:51;;;;;;;6.82;5.35;;;;;;;8.92;100.00;162895.53;5066359;28;20021;-64
2023/01/07 06:32:17;;;;;;;5.68;5.00;;;;;;;8.91;100.00;162892.81;5049569;28;20045;-64
2023/01/07 06:34:42;;;;;;;8.02;5.25;;;;;;;8.91;100.00;162892.81;5051729;28;20098;-64
2023/01/07 06:37:07;;;;;;;5.25;4.85;;;;;;;8.83;100.00;162873.94;5060983;28;20060;-64
2023/01/07 06:39:33;;;;;;;8.15;5.47;;;;;;;8.78;100.00;162860.50;5055124;28;20028;-64
2023/01/07 06:41:58;;;;;;;5.80;5.40;;;;;;;8.81;100.00;162868.59;5066309;28;20048;-64
2023/01/07 06:44:23;;;;;;;14.20;5.43;;;;;;;8.85;100.00;162879.38;5070408;28;20052;-64
2023/01/07 06:46:49;;;;;;;4.97;4.28;;;;;;;8.86;100.00;162880.75;5069545;28;20098;-64
2023/01/07 06:49:14;;;;;;;4.82;4.45;;;;;;;8.84;100.00;162876.66;5071261;28;20020;-64
2023/01/07 06:51:39;;;;;;;6.95;5.88;;;;;;;8.84;100.00;162876.66;5069162;28;20036;-62
2023/01/07 06:54:05;;;;;;;5.53;5.13;;;;;;;8.78;100.00;162860.50;5071048;28;20040;-62
2023/01/07 06:56:30;;;;;;;5.35;4.45;;;;;;;8.79;100.00;162863.19;5069957;28;20037;-62
2023/01/07 06:58:56;;;;;;;5.32;4.93;;;;;;;8.78;100.00;162860.50;5064161;28;20021;-61
2023/01/07 07:01:21;;;;;;;4.68;4.15;;;;;;;8.75;100.00;162851.06;5049434;28;20037;-62
2023/01/07 07:03:46;;;;;;;4.32;3.88;;;;;;;8.75;100.00;162852.38;5050558;28;20041;-62
2023/01/07 07:06:12;;;;;;;6.15;5.55;;;;;;;8.77;100.00;162857.78;5048901;28;20404;-62
2023/01/07 07:08:37;;;;;;;5.03;4.53;;;;;;;8.81;100.00;162868.59;5050535;28;20483;-62
2023/01/07 07:11:03;;;;;;;7.95;4.80;;;;;;;8.83;100.00;162873.94;5049286;28;20045;-63
2023/01/07 07:13:28;;;;;;;7.55;3.97;;;;;;;8.80;100.00;162864.53;5051412;28;20538;-61
2023/01/07 07:15:53;;;;;;;8.85;4.68;;;;;;;8.79;100.00;162863.19;5050940;28;20049;-61
2023/01/07 07:18:19;;;;;;;4.97;4.50;;;;;;;8.76;100.00;162855.09;5050833;28;20029;-60
2023/01/07 07:20:45;;;;;;;12.88;5.97;;;;;;;8.81;100.00;162868.59;5049268;28;20094;-58
2023/01/07 07:23:10;;;;;;;5.97;5.47;;;;;;;8.83;100.00;162872.63;5049140;28;20025;-58
2023/01/07 07:25:36;;;;;;;7.40;3.70;;;;;;;8.90;100.00;162891.50;5049209;28;20045;-58
2023/01/07 07:28:01;;;;;;;7.38;5.40;;;;;;;8.95;100.00;162904.97;5050402;28;20017;-58
2023/01/07 07:30:26;;;;;;;4.35;4.05;;;;;;;8.96;100.00;162906.34;5063899;28;20024;-58
2023/01/07 07:32:52;;;;;;;4.70;4.22;;;;;;;9.02;100.00;162922.53;5070893;28;20070;-58
2023/01/07 07:35:17;;;;;;;5.90;4.78;;;;;;;9.05;100.00;162930.59;5055710;28;20029;-58
2023/01/07 07:37:42;;;;;;;4.82;4.38;;;;;;;9.10;100.00;162942.72;5049264;28;20025;-58
2023/01/07 07:40:08;;;;;;;5.97;3.50;;;;;;;9.09;100.00;162941.41;5050423;28;20041;-58
2023/01/07 07:42:34;;;;;;;3.88;3.53;;;;;;;9.09;100.00;162941.41;5050009;28;20163;-58
2023/01/07 07:44:59;;;;;;;3.80;3.50;;;;;;;9.17;100.00;162962.97;5049508;28;20471;-58
2023/01/07 07:47:24;;;;;;;3.70;3.40;;;;;;;9.21;100.00;162972.41;5048840;28;20060;-58
2023/01/07 07:49:50;;;;;;;4.13;3.83;;;;;;;9.24;100.00;162979.16;5050515;28;20067;-58
2023/01/07 07:52:16;;;;;;;4.65;4.25;;;;;;;9.28;100.00;162989.91;5047914;28;20094;-58
2023/01/07 07:54:41;;;;;;;5.50;3.38;;;;;;;9.36;100.00;163011.50;5050837;28;20086;-58
2023/01/07 07:57:07;;;;;;;4.32;3.92;;;;;;;9.37;100.00;163014.22;5048565;28;20438;-58
2023/01/07 07:59:32;;;;;;;7.30;3.30;;;;;;;9.43;100.00;163029.06;5058393;28;20028;-58
2023/01/07 08:01:57;;;;;;;10.68;3.90;;;;;;;9.46;100.00;163038.50;5068566;28;20044;-58
2023/01/07 08:04:27;;;;;;;5.38;2.83;;;;;;;9.49;100.00;163046.56;5069996;28;20995;-58
2023/01/07 08:06:53;;;;;;;4.80;3.13;;;;;;;9.55;100.00;163061.41;5067792;28;20073;-58
2023/01/07 08:09:18;;;;;;;3.28;2.92;;;;;;;9.53;100.00;163057.38;5067994;28;20032;-58
2023/01/07 08:11:43;;;;;;;4.07;3.78;;;;;;;9.57;100.00;163065.50;5066178;28;20052;-58
2023/01/07 08:14:09;;;;;;;6.78;4.10;;;;;;;9.61;100.00;163076.28;5047214;28;20029;-58
2023/01/07 08:16:34;;;;;;;4.38;3.95;;;;;;;9.61;100.00;163076.28;5048227;28;20037;-58
2023/01/07 08:19:00;;;;;;;6.80;4.07;;;;;;;9.63;100.00;163081.69;5051561;28;20025;-58
2023/01/07 08:21:25;;;;;;;7.55;2.92;;;;;;;9.66;100.00;163089.75;5055938;28;20045;-58
2023/01/07 08:23:50;;;;;;;3.20;2.90;;;;;;;9.70;100.00;163100.56;5049083;28;20036;-58
2023/01/07 08:26:16;;;;;;;4.13;3.67;;;;;;;9.72;100.00;163105.91;5056893;28;20047;-58
2023/01/07 08:28:41;;;;;;;3.97;3.42;;;;;;;9.79;100.00;163123.47;5052895;28;20095;-58
2023/01/07 08:31:07;;;;;;;5.75;3.72;;;;;;;9.78;100.00;163122.16;5038462;28;20566;-58
2023/01/07 08:33:36;;;;;;;4.15;3.58;;;;;;;9.82;100.00;163132.94;5026799;28;20057;-58
2023/01/07 08:36:06;;;;;;;4.10;2.80;;;;;;;9.86;100.00;163141.03;5062907;28;20562;-58
2023/01/07 08:38:31;;;;;;;3.72;3.05;;;;;;;9.86;100.00;163141.03;5047436;28;20079;-58
2023/01/07 08:40:58;;;;;;;5.47;2.72;;;;;;;9.85;100.00;163139.66;5042547;28;20030;-58
2023/01/07 08:43:23;;;;;;;5.00;3.22;;;;;;;9.82;100.00;163132.94;5029838;28;20056;-58
2023/01/07 08:45:50;;;;;;;3.30;3.05;;;;;;;9.82;100.00;163132.94;5032836;28;20033;-58
2023/01/07 08:48:15;;;;;;;4.95;2.80;;;;;;;9.92;100.00;163157.22;5049720;28;20025;-58
2023/01/07 08:50:41;;;;;;;3.17;2.88;;;;;;;9.93;100.00;163159.94;5047717;28;20041;-58
2023/01/07 08:53:06;;;;;;;4.63;2.33;;;;;;;9.92;100.00;163157.22;5048667;28;20166;-58
2023/01/07 08:55:31;;;;;;;3.83;2.80;;;;;;;9.96;100.00;163168.00;5045450;28;20021;-58
2023/01/07 08:57:57;;;;;;;2.50;2.40;;;;;;;9.96;100.00;163169.38;5029744;28;20021;-58
2023/01/07 09:00:23;;;;;;;2.65;2.30;;;;;;;10.04;100.00;163189.59;5028958;28;20018;-58
2023/01/07 09:02:48;;;;;;;3.55;2.45;;;;;;;10.01;100.00;163181.53;5049402;28;20049;-58
2023/01/07 09:05:13;;;;;;;2.63;2.45;;;;;;;10.01;100.00;163181.53;5047930;28;20028;-55
2023/01/07 09:07:39;;;;;;;3.55;2.95;;;;;;;10.09;100.00;163203.06;5048305;28;20430;-58
2023/01/07 09:10:05;;;;;;;7.40;3.65;;;;;;;10.12;100.00;163209.84;5049138;28;20430;-58
2023/01/07 09:12:31;;;;;;;5.53;2.83;;;;;;;10.13;100.00;163213.88;5048142;28;20068;-58
2023/01/07 09:14:56;;;;;;;12.15;2.95;;;;;;;10.19;100.00;163227.38;5048070;28;20099;-58
2023/01/07 09:17:22;;;;;;;2.55;2.05;;;;;;;10.14;100.00;163215.22;5046923;28;20416;-58
2023/01/07 09:19:47;;;;;;;2.40;2.20;;;;;;;10.23;100.00;163238.19;5049277;28;20036;-58
2023/01/07 09:22:12;;;;;;;10.68;2.90;;;;;;;10.29;100.00;163254.38;5031031;28;20037;-58
2023/01/07 09:24:38;;;;;;;6.60;2.90;;;;;;;10.33;100.00;163265.16;5029215;28;20025;-58
2023/01/07 09:27:03;;;;;;;4.13;2.53;;;;;;;10.32;100.00;163262.44;5045512;28;20403;-58
2023/01/07 09:29:28;;;;;;;2.78;2.50;;;;;;;10.36;100.00;163273.25;5051506;28;20554;-58
2023/01/07 09:31:54;;;;;;;2.88;2.67;;;;;;;10.40;100.00;163282.78;5051537;28;20044;-58
2023/01/07 09:34:19;;;;;;;3.72;2.28;;;;;;;10.40;100.00;163284.09;5052909;28;20029;-58
2023/01/07 09:36:44;;;;;;;2.83;2.33;;;;;;;10.52;100.00;163313.81;5051226;28;20037;-58
2023/01/07 09:39:11;;;;;;;4.28;2.60;;;;;;;10.51;100.00;163311.09;5052669;28;20047;-58
2023/01/07 09:41:45;;;;;;;4.07;2.47;;;;;;;10.54;100.00;163319.19;5051110;28;20594;-58
2023/01/07 09:44:33;;;;;;;4.43;3.55;;;;;;;10.60;100.00;163336.75;5053308;28;20032;-58
2023/01/07 09:46:59;;;;;;;3.00;2.78;;;;;;;10.63;100.00;163343.50;5048396;28;20033;-58
2023/01/07 09:49:28;;;;;;;7.57;4.53;;;;;;;10.64;100.00;163346.19;5051856;28;20083;-58
2023/01/07 09:52:01;;;;;;;3.55;2.65;;;;;;;10.66;100.00;163351.59;5050822;28;20572;-58
2023/01/07 09:54:35;;;;;;;5.30;2.88;;;;;;;10.67;100.00;163354.31;5052439;28;20491;-59
2023/01/07 09:57:01;;;;;;;3.45;2.65;;;;;;;10.68;100.00;163357.03;5053563;28;20041;-58
2023/01/07 09:59:26;;;;;;;2.50;2.30;;;;;;;10.66;100.00;163351.59;5052177;28;20021;-58
2023/01/07 10:02:03;;;;;;;7.70;2.85;;;;;;;10.65;100.00;163348.91;5058686;28;20041;-58
2023/01/07 10:04:48;;;;;;;4.32;3.10;;;;;;;10.64;100.00;163346.19;5057979;28;20052;-58
2023/01/07 10:07:27;;;;;;;3.25;2.90;;;;;;;10.58;100.00;163330.00;5067167;28;20865;-58
2023/01/07 10:09:52;;;;;;;3.88;3.55;;;;;;;10.62;100.00;163340.78;5050823;28;20600;-58
2023/01/07 10:12:29;;;;;;;5.07;2.55;;;;;;;10.60;100.00;163335.41;5060127;28;20135;-58
2023/01/07 10:15:05;;;;;;;3.40;2.17;;;;;;;10.65;100.00;163347.56;5065988;28;20029;-58
2023/01/07 10:17:50;;;;;;;2.88;2.67;;;;;;;10.59;100.00;163332.72;5052787;28;20047;-58
2023/01/07 10:20:41;;;;;;;2.65;2.40;;;;;;;10.53;100.00;163316.53;5063919;28;20036;-57
2023/01/07 10:23:20;;;;;;;2.50;2.30;;;;;;;10.61;100.00;163339.44;5037616;28;20380;-58
2023/01/07 10:25:49;;;;;;;3.05;2.63;;;;;;;10.60;100.00;163335.41;5048961;28;20542;-58
2023/01/07 10:28:21;;;;;;;2.90;1.90;;;;;;;10.57;100.00;163327.28;5051620;28;20128;-58
2023/01/07 10:30:51;;;;;;;2.83;2.63;;;;;;;10.60;100.00;163335.41;5050690;28;20040;-58
2023/01/07 10:33:28;;;;;;;5.75;2.42;;;;;;;10.54;100.00;163319.19;5052056;28;20025;-58
2023/01/07 10:36:37;;;;;;;3.58;2.70;;;;;;;10.54;100.00;163320.56;5049910;28;20373;-58
2023/01/07 10:39:20;;;;;;;2.00;1.90;;;;;;;10.54;100.00;163319.19;5049937;28;20433;-58
2023/01/07 10:42:23;;;;;;;2.92;2.65;;;;;;;10.53;100.00;163316.53;5050403;28;20103;-58
2023/01/07 10:45:15;;;;;;;2.67;2.33;;;;;;;10.56;100.00;163324.59;5051313;28;20082;-58
2023/01/07 10:47:50;;;;;;;1.92;1.77;;;;;;;10.60;100.00;163335.41;5070618;28;20046;-58
2023/01/07 10:50:35;;;;;;;4.50;2.45;;;;;;;10.64;100.00;163346.19;5069673;28;20024;-58
2023/01/07 10:53:17;;;;;;;2.63;2.17;;;;;;;10.65;100.00;163348.91;5071723;28;20091;-58
2023/01/07 10:56:21;;;;;;;2.15;2.05;;;;;;;10.64;100.00;163346.19;5070244;28;20048;-58
2023/01/07 10:58:48;;;;;;;2.20;2.10;;;;;;;10.75;100.00;163374.53;5062220;28;20166;-58
2023/01/07 11:01:36;;;;;;;3.15;2.15;;;;;;;10.81;100.00;163389.41;5069883;28;20062;-58
2023/01/07 11:04:02;;;;;;;1.40;1.33;;;;;;;10.87;100.00;163405.59;5071126;28;20059;-58
2023/01/07 11:06:49;;;;;;;1.92;1.83;;;;;;;10.98;100.00;163435.31;5069470;28;20116;-58
2023/01/07 11:09:35;;;;;;;2.63;2.07;;;;;;;11.02;100.00;163446.09;5071127;28;20546;-58
2023/01/07 11:12:28;;;;;;;2.58;2.38;;;;;;;11.13;100.00;163474.44;5069794;28;20036;-58
2023/01/07 11:14:56;;;;;;;2.70;2.38;;;;;;;11.23;100.00;163500.09;5054781;28;20074;-58
2023/01/07 11:17:33;;;;;;;2.20;2.00;;;;;;;11.27;100.00;163512.25;5048569;28;20037;-58
2023/01/07 11:19:59;;;;;;;8.57;2.47;;;;;;;11.41;100.00;163548.75;5050706;28;20032;-58
2023/01/07 11:22:24;;;;;;;2.22;2.03;;;;;;;11.49;100.00;163567.63;5048903;28;20037;-58
2023/01/07 11:24:51;;;;;;;6.85;2.97;;;;;;;11.68;100.00;163617.63;5055086;28;20183;-58
2023/01/07 11:27:18;;;;;;;6.15;2.38;;;;;;;11.85;100.00;163662.19;5060315;28;20029;-58
2023/01/07 11:30:19;;;;;;;2.85;2.22;;;;;;;11.92;100.00;163681.09;5052257;28;20028;-58
2023/01/07 11:32:58;;;;;;;4.35;1.98;;;;;;;11.98;100.00;163697.34;5048112;28;20040;-58
2023/01/07 11:35:27;;;;;;;;;;;;;;;11.95;100.00;163689.16;5050932;28;20067;-58